createdAt,value
2022-08-05T00:02:22.766Z,5.63
2022-08-05T00:04:55.158Z,5.57
2022-08-05T00:07:59.080Z,5.80
2022-08-05T00:10:11.964Z,5.90
2022-08-05T00:12:55.747Z,5.55
2022-08-05T00:15:56.136Z,5.68
2022-08-05T00:18:21.327Z,5.90
2022-08-05T00:20:49.929Z,5.70
2022-08-05T00:23:17.297Z,4.95
2022-08-05T00:26:05.025Z,5.97
2022-08-05T00:28:32.939Z,5.15
2022-08-05T00:31:04.126Z,5.50
2022-08-05T00:34:53.219Z,5.60
2022-08-05T00:37:11.630Z,5.78
2022-08-05T00:39:14.029Z,5.38
2022-08-05T00:41:55.260Z,5.40
2022-08-05T00:44:30.314Z,5.70
2022-08-05T00:47:04.271Z,6.32
2022-08-05T00:52:28.401Z,5.70
2022-08-05T00:54:56.295Z,5.55
2022-08-05T00:57:25.459Z,5.93
2022-08-05T00:59:59.542Z,5.95
2022-08-05T01:02:28.493Z,6.10
2022-08-05T01:04:55.636Z,5.82
2022-08-05T01:07:31.632Z,5.78
2022-08-05T01:09:59.785Z,6.60
2022-08-05T01:12:29.841Z,5.82
2022-08-05T01:15:05.475Z,6.18
2022-08-05T01:17:39.919Z,5.38
2022-08-05T01:23:15.323Z,6.10
2022-08-05T01:28:51.441Z,5.90
2022-08-05T01:34:04.919Z,6.30
2022-08-05T01:36:47.304Z,6.05
2022-08-05T01:39:36.079Z,5.65
2022-08-05T01:42:06.556Z,5.95
2022-08-05T01:44:39.377Z,6.50
2022-08-05T01:47:09.610Z,6.22
2022-08-05T01:50:00.126Z,5.93
2022-08-05T01:52:37.542Z,5.78
2022-08-05T01:55:09.637Z,6.07
2022-08-05T01:58:10.722Z,6.07
2022-08-05T02:00:31.837Z,6.30
2022-08-05T02:03:05.484Z,6.68
2022-08-05T02:05:36.732Z,5.93
2022-08-05T02:08:04.905Z,6.32
2022-08-05T02:10:41.032Z,6.35
2022-08-05T02:13:22.043Z,6.05
2022-08-05T02:15:59.279Z,6.63
2022-08-05T02:18:35.187Z,6.53
2022-08-05T02:21:14.845Z,6.25
2022-08-05T02:23:46.032Z,6.55
2022-08-05T02:26:18.635Z,5.85
2022-08-05T02:28:50.434Z,5.93
2022-08-05T02:31:24.535Z,6.57
2022-08-05T02:34:01.310Z,6.40
2022-08-05T02:36:31.669Z,6.53
2022-08-05T02:39:01.888Z,6.97
2022-08-05T02:41:43.206Z,6.05
2022-08-05T02:44:23.826Z,6.45
2022-08-05T02:46:59.889Z,6.63
2022-08-05T02:49:37.675Z,6.10
2022-08-05T02:52:29.967Z,6.60
2022-08-05T02:55:01.801Z,5.80
2022-08-05T03:00:20.929Z,5.82
2022-08-05T03:02:53.838Z,6.57
2022-08-05T03:05:21.924Z,6.20
2022-08-05T03:08:11.433Z,6.25
2022-08-05T03:10:39.105Z,6.43
2022-08-05T03:13:18.349Z,6.32
2022-08-05T03:15:47.484Z,6.95
2022-08-05T03:18:17.466Z,6.53
2022-08-05T03:20:48.934Z,6.95
2022-08-05T03:23:18.060Z,6.45
2022-08-05T03:26:30.027Z,6.75
2022-08-05T03:28:35.166Z,7.10
2022-08-05T03:31:04.207Z,6.50
2022-08-05T03:33:42.346Z,6.75
2022-08-05T03:36:30.183Z,6.65
2022-08-05T03:38:59.341Z,6.70
2022-08-05T03:41:32.928Z,7.10
2022-08-05T03:44:11.637Z,6.65
2022-08-05T03:46:39.896Z,6.65
2022-08-05T03:49:07.075Z,6.65
2022-08-05T03:52:37.090Z,6.80
2022-08-05T03:56:05.655Z,6.28
2022-08-05T03:57:53.755Z,6.65
2022-08-05T04:00:26.715Z,6.28
2022-08-05T04:02:58.535Z,6.43
2022-08-05T04:05:35.796Z,6.57
2022-08-05T04:08:14.485Z,6.68
2022-08-05T04:10:53.983Z,7.00
2022-08-05T04:13:22.508Z,6.80
2022-08-05T04:16:02.710Z,6.70
2022-08-05T04:18:34.719Z,6.63
2022-08-05T04:21:04.011Z,7.57
2022-08-05T04:24:05.015Z,7.25
2022-08-05T04:26:20.298Z,6.80
2022-08-05T04:28:51.064Z,6.55
2022-08-05T04:31:20.145Z,6.28
2022-08-05T04:34:17.011Z,6.70
2022-08-05T04:36:45.648Z,6.40
2022-08-05T04:39:13.824Z,6.38
2022-08-05T04:41:44.374Z,6.40
2022-08-05T04:44:14.361Z,6.85
2022-08-05T04:46:43.543Z,7.00
2022-08-05T04:49:19.176Z,6.65
2022-08-05T04:52:00.390Z,6.40
2022-08-05T04:54:30.776Z,6.95
2022-08-05T04:57:01.672Z,6.68
2022-08-05T04:59:40.468Z,6.80
2022-08-05T05:02:41.217Z,6.95
2022-08-05T05:05:01.636Z,7.28
2022-08-05T05:07:31.926Z,9.23
2022-08-05T05:10:02.161Z,7.38
2022-08-05T05:12:30.487Z,7.28
2022-08-05T05:14:57.583Z,7.30
2022-08-05T05:17:55.761Z,7.03
2022-08-05T05:20:13.735Z,6.93
2022-08-05T05:22:44.140Z,7.45
2022-08-05T05:25:16.444Z,7.68
2022-08-05T05:27:53.801Z,7.95
2022-08-05T05:30:30.866Z,6.68
2022-08-05T05:33:15.827Z,7.60
2022-08-05T05:35:45.716Z,7.78
2022-08-05T05:38:14.154Z,8.73
2022-08-05T05:40:50.078Z,10.57
2022-08-05T05:43:22.209Z,9.23
2022-08-05T05:46:15.748Z,8.63
2022-08-05T05:48:47.879Z,8.40
2022-08-05T05:51:25.753Z,8.93
2022-08-05T05:53:58.564Z,7.53
2022-08-05T05:56:33.004Z,6.30
2022-08-05T05:59:05.113Z,6.20
2022-08-05T06:01:39.428Z,4.80
2022-08-05T06:04:11.391Z,5.00
2022-08-05T06:06:47.798Z,5.00
2022-08-05T06:09:24.906Z,4.93
2022-08-05T06:11:59.903Z,5.57
2022-08-05T06:14:31.810Z,5.75
2022-08-05T06:17:22.227Z,3.90
2022-08-05T06:19:57.040Z,4.80
2022-08-05T06:22:33.449Z,4.97
2022-08-05T06:25:24.465Z,5.20
2022-08-05T06:28:12.442Z,4.90
2022-08-05T06:30:36.796Z,5.40
2022-08-05T06:33:04.354Z,5.05
2022-08-05T06:36:07.228Z,4.60
2022-08-05T06:38:36.578Z,4.82
2022-08-05T06:41:08.198Z,5.18
2022-08-05T06:43:58.246Z,4.68
2022-08-05T06:46:30.246Z,5.25
2022-08-05T06:49:00.791Z,4.93
2022-08-05T06:51:30.750Z,5.43
2022-08-05T06:54:03.693Z,5.68
2022-08-05T06:56:34.970Z,4.68
2022-08-05T06:59:04.760Z,5.20
2022-08-05T07:01:38.685Z,4.97
2022-08-05T07:04:08.886Z,5.53
2022-08-05T07:06:36.097Z,5.40
2022-08-05T07:09:06.314Z,5.40
2022-08-05T07:11:37.173Z,5.30
2022-08-05T07:14:38.807Z,6.38
2022-08-05T07:18:02.422Z,6.05
2022-08-05T07:20:30.978Z,5.28
2022-08-05T07:22:42.629Z,5.63
2022-08-05T07:25:53.866Z,5.60
2022-08-05T07:28:03.911Z,5.53
2022-08-05T07:30:39.049Z,5.20
2022-08-05T07:36:01.815Z,5.53
2022-08-05T07:38:34.973Z,4.88
2022-08-05T07:41:34.958Z,5.13
2022-08-05T07:44:06.583Z,5.18
2022-08-05T07:46:42.107Z,5.78
2022-08-05T07:49:16.195Z,5.07
2022-08-05T07:51:53.909Z,4.63
2022-08-05T07:54:30.629Z,4.32
2022-08-05T07:57:01.626Z,4.80
2022-08-05T07:59:42.450Z,3.70
2022-08-05T08:02:15.742Z,4.20
2022-08-05T08:04:48.259Z,4.35
2022-08-05T08:07:17.933Z,4.95
2022-08-05T08:09:46.829Z,4.50
2022-08-05T08:12:35.236Z,4.28
2022-08-05T08:15:13.933Z,4.20
2022-08-05T08:17:46.202Z,4.25
2022-08-05T08:21:00.009Z,4.72
2022-08-05T08:23:59.672Z,4.07
2022-08-05T08:26:00.068Z,4.30
2022-08-05T08:28:36.509Z,4.30
2022-08-05T08:31:07.048Z,4.38
2022-08-05T08:33:38.589Z,4.57
2022-08-05T08:38:57.266Z,4.10
2022-08-05T08:41:50.609Z,4.68
2022-08-05T08:45:16.543Z,4.93
2022-08-05T08:47:46.834Z,4.43
2022-08-05T08:50:12.900Z,4.07
2022-08-05T08:52:52.859Z,4.15
2022-08-05T08:56:02.913Z,4.22
2022-08-05T08:58:12.737Z,4.30
2022-08-05T09:00:42.670Z,4.55
2022-08-05T09:03:11.848Z,4.93
2022-08-05T09:06:08.663Z,4.90
2022-08-05T09:08:31.153Z,4.35
2022-08-05T09:10:58.745Z,4.50
2022-08-05T09:13:31.688Z,5.25
2022-08-05T09:16:14.548Z,5.32
2022-08-05T09:18:44.568Z,5.03
2022-08-05T09:21:20.744Z,5.10
2022-08-05T09:24:10.258Z,4.68
2022-08-05T09:26:38.050Z,4.78
2022-08-05T09:29:17.524Z,3.88
2022-08-05T09:32:40.193Z,4.18
2022-08-05T09:34:56.390Z,4.18
2022-08-05T09:38:12.917Z,3.63
2022-08-05T09:40:30.126Z,3.63
2022-08-05T09:43:01.268Z,3.95
2022-08-05T09:46:06.647Z,3.80
2022-08-05T09:48:30.499Z,3.72
2022-08-05T09:51:00.683Z,3.47
2022-08-05T09:53:53.183Z,3.28
2022-08-05T09:56:30.031Z,4.13
2022-08-05T09:59:00.699Z,3.47
2022-08-05T10:01:34.198Z,3.25
2022-08-05T10:04:10.600Z,3.30
2022-08-05T10:06:54.633Z,3.72
2022-08-05T10:12:30.037Z,3.20
2022-08-05T10:15:17.335Z,3.45
2022-08-05T10:18:11.845Z,3.60
2022-08-05T10:20:44.314Z,3.58
2022-08-05T10:23:22.112Z,3.63
2022-08-05T10:26:14.552Z,3.97
2022-08-05T10:28:44.890Z,3.70
2022-08-05T10:32:48.937Z,3.80
2022-08-05T10:34:06.995Z,3.38
2022-08-05T10:36:37.983Z,3.97
2022-08-05T10:39:11.872Z,3.22
2022-08-05T10:42:04.680Z,3.60
2022-08-05T10:44:33.351Z,3.65
2022-08-05T10:47:26.596Z,3.00
2022-08-05T10:50:32.299Z,3.22
2022-08-05T10:52:58.774Z,3.72
2022-08-05T10:55:27.422Z,3.30
2022-08-05T10:58:11.884Z,3.70
2022-08-05T11:00:48.419Z,3.90
2022-08-05T11:03:26.343Z,3.30
2022-08-05T11:06:15.513Z,2.90
2022-08-05T11:09:31.941Z,3.17
2022-08-05T11:12:26.732Z,3.50
2022-08-05T11:15:21.459Z,2.90
2022-08-05T11:17:57.343Z,3.38
2022-08-05T11:20:43.978Z,3.30
2022-08-05T11:23:33.568Z,3.33
2022-08-05T11:26:28.646Z,3.28
2022-08-05T11:28:57.059Z,3.08
2022-08-05T11:31:54.312Z,2.72
2022-08-05T11:34:37.085Z,2.83
2022-08-05T11:37:06.109Z,2.85
2022-08-05T11:40:00.836Z,3.40
2022-08-05T11:42:37.977Z,2.95
2022-08-05T11:45:14.328Z,3.15
2022-08-05T11:47:51.103Z,3.15
2022-08-05T11:50:22.896Z,2.85
2022-08-05T11:52:53.146Z,2.67
2022-08-05T11:55:32.082Z,2.83
2022-08-05T11:58:11.053Z,3.20
2022-08-05T12:00:41.662Z,2.75
2022-08-05T12:03:29.556Z,3.05
2022-08-05T12:06:02.194Z,3.20
2022-08-05T12:08:31.448Z,3.20
2022-08-05T12:11:05.913Z,3.17
2022-08-05T12:13:48.478Z,3.10
2022-08-05T12:16:20.062Z,3.17
2022-08-05T12:18:53.664Z,2.70
2022-08-05T12:21:26.577Z,2.80
2022-08-05T12:26:36.166Z,3.00
2022-08-05T12:29:09.331Z,3.40
2022-08-05T12:31:43.521Z,3.30
2022-08-05T12:34:20.279Z,2.92
2022-08-05T12:36:50.379Z,2.75
2022-08-05T12:39:18.217Z,3.00
2022-08-05T12:41:45.906Z,3.13
2022-08-05T12:44:21.767Z,3.20
2022-08-05T12:47:02.202Z,2.88
2022-08-05T12:50:05.146Z,3.22
2022-08-05T12:52:39.444Z,3.10
2022-08-05T12:55:22.458Z,2.90
2022-08-05T12:58:51.430Z,3.40
2022-08-05T13:02:03.099Z,3.10
2022-08-05T13:03:32.332Z,3.58
2022-08-05T13:06:01.529Z,3.70
2022-08-05T13:08:32.314Z,3.63
2022-08-05T13:11:02.245Z,3.65
2022-08-05T13:14:04.637Z,2.95
2022-08-05T13:16:19.605Z,3.15
2022-08-05T13:18:58.351Z,3.13
2022-08-05T13:21:27.882Z,3.10
2022-08-05T13:23:56.537Z,3.55
2022-08-05T13:26:30.055Z,3.28
2022-08-05T13:28:59.196Z,3.17
2022-08-05T13:32:03.320Z,3.00
2022-08-05T13:34:21.751Z,3.40
2022-08-05T13:36:54.067Z,3.17
2022-08-05T13:40:13.918Z,2.97
2022-08-05T13:42:14.670Z,3.60
2022-08-05T13:44:45.799Z,3.38
2022-08-05T13:47:35.920Z,3.67
2022-08-05T13:50:04.106Z,3.30
2022-08-05T13:52:35.224Z,3.53
2022-08-05T13:55:07.633Z,3.13
2022-08-05T13:57:51.288Z,3.30
2022-08-05T14:00:27.042Z,3.20
2022-08-05T14:02:57.311Z,3.03
2022-08-05T14:05:48.407Z,3.20
2022-08-05T14:08:21.017Z,3.50
2022-08-05T14:10:59.728Z,3.45
2022-08-05T14:13:36.017Z,3.08
2022-08-05T14:16:07.194Z,3.40
2022-08-05T14:18:38.001Z,3.75
2022-08-05T14:22:07.011Z,3.45
2022-08-05T14:23:53.872Z,3.70
2022-08-05T14:26:36.828Z,3.22
2022-08-05T14:29:15.757Z,3.50
2022-08-05T14:32:02.672Z,3.38
2022-08-05T14:34:35.433Z,3.88
2022-08-05T14:37:05.215Z,3.47
2022-08-05T14:39:49.430Z,3.13
2022-08-05T14:42:21.409Z,3.47
2022-08-05T14:44:50.228Z,3.25
2022-08-05T14:47:58.333Z,3.47
2022-08-05T14:50:17.767Z,3.10
2022-08-05T14:52:57.594Z,3.30
2022-08-05T14:55:28.744Z,3.55
2022-08-05T14:58:10.956Z,3.33
2022-08-05T15:00:58.858Z,3.20
2022-08-05T15:03:33.364Z,3.53
2022-08-05T15:06:15.447Z,3.40
2022-08-05T15:09:01.226Z,3.17
2022-08-05T15:11:52.990Z,3.80
2022-08-05T15:14:34.426Z,3.00
2022-08-05T15:17:44.272Z,3.65
2022-08-05T15:19:53.014Z,3.40
2022-08-05T15:22:22.573Z,3.25
2022-08-05T15:24:55.797Z,3.28
2022-08-05T15:27:25.749Z,3.33
2022-08-05T15:29:56.780Z,3.63
2022-08-05T15:32:27.502Z,3.55
2022-08-05T15:34:57.403Z,3.58
2022-08-05T15:38:34.763Z,3.42
2022-08-05T15:40:58.699Z,3.50
2022-08-05T15:43:10.890Z,3.58
2022-08-05T15:45:45.714Z,3.08
2022-08-05T15:48:15.255Z,3.47
2022-08-05T15:50:43.936Z,3.20
2022-08-05T15:53:14.424Z,3.42
2022-08-05T15:56:04.021Z,3.38
2022-08-05T15:58:35.790Z,3.55
2022-08-05T16:01:16.086Z,3.25
2022-08-05T16:03:51.046Z,3.92
2022-08-05T16:06:20.635Z,3.50
2022-08-05T16:08:53.609Z,3.50
2022-08-05T16:11:39.974Z,3.65
2022-08-05T16:14:09.006Z,3.42
2022-08-05T16:16:37.298Z,3.90
2022-08-05T16:19:05.086Z,3.40
2022-08-05T16:22:00.111Z,3.45
2022-08-05T16:24:39.777Z,3.40
2022-08-05T16:27:07.831Z,3.30
2022-08-05T16:29:37.609Z,3.50
2022-08-05T16:32:09.802Z,3.78
2022-08-05T16:34:39.269Z,3.53
2022-08-05T16:38:00.333Z,3.20
2022-08-05T16:40:04.944Z,3.25
2022-08-05T16:42:35.219Z,3.70
2022-08-05T16:45:05.977Z,3.67
2022-08-05T16:47:55.607Z,3.55
2022-08-05T16:50:26.105Z,3.83
2022-08-05T16:52:53.146Z,4.45
2022-08-05T16:55:24.668Z,3.80
2022-08-05T16:58:01.271Z,3.80
2022-08-05T17:00:35.043Z,3.70
2022-08-05T17:03:15.280Z,3.58
2022-08-05T17:05:53.960Z,4.07
2022-08-05T17:08:36.162Z,4.30
2022-08-05T17:11:16.860Z,3.90
2022-08-05T17:13:45.695Z,3.60
2022-08-05T17:16:30.309Z,4.40
2022-08-05T17:19:01.411Z,3.83
2022-08-05T17:21:35.976Z,4.53
2022-08-05T17:24:18.481Z,3.63
2022-08-05T17:26:56.141Z,4.30
2022-08-05T17:29:33.854Z,4.00
2022-08-05T17:32:11.681Z,4.07
2022-08-05T17:34:47.699Z,3.97
2022-08-05T17:37:39.648Z,4.05
2022-08-05T17:40:10.151Z,3.90
2022-08-05T17:42:42.912Z,4.30
2022-08-05T17:45:20.270Z,4.53
2022-08-05T17:47:55.059Z,4.07
2022-08-05T17:50:28.149Z,4.18
2022-08-05T17:53:02.153Z,4.38
2022-08-05T17:55:37.217Z,4.55
2022-08-05T17:58:12.778Z,5.20
2022-08-05T18:00:47.699Z,4.53
2022-08-05T18:06:11.180Z,4.13
2022-08-05T18:08:44.919Z,4.60
2022-08-05T18:11:23.188Z,4.60
2022-08-05T18:13:51.883Z,4.60
2022-08-05T18:16:20.387Z,4.60
2022-08-05T18:18:49.888Z,5.07
2022-08-05T18:21:23.031Z,5.00
2022-08-05T18:23:54.466Z,4.50
2022-08-05T18:26:27.739Z,4.65
2022-08-05T18:28:57.423Z,4.93
2022-08-05T18:31:25.168Z,5.40
2022-08-05T18:33:54.137Z,4.40
2022-08-05T18:36:27.924Z,4.20
2022-08-05T18:38:56.130Z,5.15
2022-08-05T18:41:58.475Z,4.95
2022-08-05T18:44:12.756Z,5.00
2022-08-05T18:46:41.049Z,4.78
2022-08-05T18:49:44.521Z,4.55
2022-08-05T18:52:35.851Z,4.75
2022-08-05T18:55:10.693Z,5.20
2022-08-05T18:57:50.178Z,4.70
2022-08-05T19:00:29.193Z,4.80
2022-08-05T19:03:03.275Z,4.93
2022-08-05T19:06:13.288Z,5.07
2022-08-05T19:08:19.815Z,5.40
2022-08-05T19:10:50.054Z,5.05
2022-08-05T19:13:17.916Z,5.40
2022-08-05T19:15:58.765Z,5.75
2022-08-05T19:18:28.997Z,6.05
2022-08-05T19:20:56.951Z,6.85
2022-08-05T19:24:05.997Z,6.82
2022-08-05T19:26:12.773Z,7.05
2022-08-05T19:28:42.418Z,7.30
2022-08-05T19:31:13.205Z,7.82
2022-08-05T19:33:48.656Z,8.32
2022-08-05T19:36:26.722Z,8.35
2022-08-05T19:39:00.565Z,9.02
2022-08-05T19:44:15.383Z,8.82
2022-08-05T19:46:43.675Z,8.55
2022-08-05T19:49:14.438Z,8.48
2022-08-05T19:52:08.505Z,8.50
2022-08-05T19:54:33.022Z,9.00
2022-08-05T19:57:08.321Z,8.95
2022-08-05T20:00:01.047Z,9.10
2022-08-05T20:02:31.490Z,7.88
2022-08-05T20:04:59.892Z,7.60
2022-08-05T20:07:47.182Z,7.43
2022-08-05T20:10:17.505Z,8.55
2022-08-05T20:12:49.178Z,9.05
2022-08-05T20:15:48.620Z,9.70
2022-08-05T20:18:10.075Z,10.15
2022-08-05T20:20:55.991Z,10.63
2022-08-05T20:23:40.480Z,10.20
2022-08-05T20:26:15.237Z,11.73
2022-08-05T20:28:44.484Z,11.20
2022-08-05T20:31:12.136Z,9.48
2022-08-05T20:33:42.339Z,8.40
2022-08-05T20:36:11.218Z,8.77
2022-08-05T20:38:40.676Z,8.23
2022-08-05T20:41:08.503Z,7.28
2022-08-05T20:43:59.803Z,7.10
2022-08-05T20:46:24.917Z,7.10
2022-08-05T20:48:53.044Z,7.45
2022-08-05T20:51:22.263Z,7.13
2022-08-05T20:53:56.564Z,7.30
2022-08-05T20:56:28.208Z,7.20
2022-08-05T20:59:00.104Z,6.70
2022-08-05T21:04:10.871Z,7.00
2022-08-05T21:06:45.538Z,6.88
2022-08-05T21:09:15.062Z,6.93
2022-08-05T21:12:07.354Z,6.78
2022-08-05T21:14:34.896Z,6.80
2022-08-05T21:17:05.633Z,7.47
2022-08-05T21:19:47.375Z,7.47
2022-08-05T21:22:18.297Z,6.90
2022-08-05T21:24:51.926Z,7.03
2022-08-05T21:27:24.992Z,6.85
2022-08-05T21:29:56.573Z,7.00
2022-08-05T21:32:27.689Z,6.97
2022-08-05T21:35:08.250Z,6.97
2022-08-05T21:37:52.650Z,6.80
2022-08-05T21:40:23.185Z,7.57
2022-08-05T21:42:52.600Z,7.20
2022-08-05T21:45:38.089Z,7.70
2022-08-05T21:48:10.559Z,7.57
2022-08-05T21:50:54.035Z,7.68
2022-08-05T21:53:27.694Z,7.80
2022-08-05T21:56:09.516Z,7.72
2022-08-05T21:58:56.964Z,7.55
2022-08-05T22:01:26.097Z,7.65
2022-08-05T22:03:54.071Z,7.22
2022-08-05T22:06:35.341Z,6.88
2022-08-05T22:09:13.627Z,7.40
2022-08-05T22:11:46.959Z,7.32
2022-08-05T22:14:32.931Z,7.15
2022-08-05T22:17:05.016Z,6.70
2022-08-05T22:20:00.423Z,6.80
2022-08-05T22:22:27.049Z,7.95
2022-08-05T22:25:21.276Z,7.97
2022-08-05T22:28:04.957Z,7.13
2022-08-05T22:30:55.458Z,7.72
2022-08-05T22:33:56.860Z,7.28
2022-08-05T22:36:14.455Z,7.47
2022-08-05T22:38:47.958Z,7.68
2022-08-05T22:42:05.401Z,7.70
2022-08-05T22:44:08.322Z,7.38
2022-08-05T22:46:39.799Z,6.75
2022-08-05T22:49:12.058Z,7.22
2022-08-05T22:52:05.558Z,7.72
2022-08-05T22:54:36.671Z,7.50
2022-08-05T22:57:06.113Z,7.82
2022-08-05T22:59:46.370Z,7.07
2022-08-05T23:02:18.684Z,7.70
2022-08-05T23:05:01.420Z,7.18
2022-08-05T23:07:32.579Z,7.72
2022-08-05T23:10:11.099Z,6.88
2022-08-05T23:12:38.629Z,7.28
2022-08-05T23:15:08.740Z,7.25
2022-08-05T23:18:00.944Z,8.07
2022-08-05T23:20:25.186Z,7.65
2022-08-05T23:22:55.701Z,7.13
2022-08-05T23:25:51.408Z,7.38
2022-08-05T23:28:12.189Z,7.45
2022-08-05T23:30:43.768Z,7.40
2022-08-05T23:33:25.641Z,6.85
2022-08-05T23:35:56.236Z,7.57
2022-08-05T23:38:26.858Z,7.60
2022-08-05T23:40:54.346Z,7.45
2022-08-05T23:43:25.300Z,8.00
2022-08-05T23:46:19.590Z,8.18
2022-08-05T23:49:00.999Z,7.82
2022-08-05T23:51:54.354Z,7.68
2022-08-05T23:54:26.049Z,7.45
2022-08-05T23:56:55.939Z,7.20
